createdAt,value
2018-02-20T00:02:03.802Z,91.70
2018-02-20T00:04:33.115Z,91.60
2018-02-20T00:07:02.424Z,91.60
2018-02-20T00:09:32.610Z,91.80
2018-02-20T00:12:01.940Z,91.80
2018-02-20T00:14:31.259Z,92.00
2018-02-20T00:17:01.355Z,92.20
2018-02-20T00:19:30.665Z,92.20
2018-02-20T00:21:59.978Z,92.20
2018-02-20T00:24:30.146Z,92.80
2018-02-20T00:26:59.678Z,92.50
2018-02-20T00:29:28.982Z,92.60
2018-02-20T00:31:58.298Z,92.90
2018-02-20T00:34:28.375Z,93.20
2018-02-20T00:36:57.698Z,93.20
2018-02-20T00:39:27.000Z,93.30
2018-02-20T00:41:56.320Z,93.50
2018-02-20T00:44:26.374Z,93.50
2018-02-20T00:46:55.699Z,93.50
2018-02-20T00:49:25.000Z,93.30
2018-02-20T00:51:54.331Z,93.20
2018-02-20T00:54:23.675Z,93.30
2018-02-20T00:56:52.949Z,93.40
2018-02-20T00:59:22.253Z,93.40
2018-02-20T01:01:51.625Z,93.30
2018-02-20T01:04:20.912Z,93.30
2018-02-20T01:06:50.265Z,93.30
2018-02-20T01:09:20.479Z,93.40
2018-02-20T01:11:49.821Z,93.60
2018-02-20T01:14:19.134Z,93.60
2018-02-20T01:16:48.440Z,93.70
2018-02-20T01:19:17.863Z,93.70
2018-02-20T01:21:47.170Z,93.70
2018-02-20T01:24:16.464Z,93.60
2018-02-20T01:26:45.772Z,93.70
2018-02-20T01:29:15.103Z,93.60
2018-02-20T01:31:44.421Z,93.60
2018-02-20T01:34:13.727Z,93.50
2018-02-20T01:36:43.122Z,93.30
2018-02-20T01:39:12.424Z,93.40
2018-02-20T01:41:41.735Z,93.40
2018-02-20T01:44:11.038Z,93.50
2018-02-20T01:46:40.324Z,93.50
2018-02-20T01:49:09.653Z,93.50
2018-02-20T01:51:38.977Z,93.60
2018-02-20T01:54:08.422Z,93.40
2018-02-20T01:56:37.723Z,93.30
2018-02-20T01:59:07.009Z,93.30
2018-02-20T02:01:36.375Z,93.30
2018-02-20T02:04:06.454Z,93.20
2018-02-20T02:06:35.757Z,93.20
2018-02-20T02:09:05.069Z,93.30
2018-02-20T02:11:34.395Z,93.30
2018-02-20T02:14:03.728Z,93.20
2018-02-20T02:16:34.055Z,93.10
2018-02-20T02:19:04.182Z,93.10
2018-02-20T02:21:33.483Z,93.10
2018-02-20T02:24:02.799Z,92.90
2018-02-20T02:26:32.120Z,92.80
2018-02-20T02:29:01.440Z,92.70
2018-02-20T02:31:30.744Z,92.70
2018-02-20T02:34:00.028Z,92.80
2018-02-20T02:36:29.372Z,92.90
2018-02-20T02:38:59.585Z,92.90
2018-02-20T02:41:29.719Z,92.70
2018-02-20T02:43:59.770Z,92.80
2018-02-20T02:46:29.081Z,92.70
2018-02-20T02:48:58.431Z,92.70
2018-02-20T02:51:27.760Z,92.50
2018-02-20T02:53:57.055Z,92.60
2018-02-20T02:56:26.370Z,92.60
2018-02-20T02:58:55.691Z,92.70
2018-02-20T03:01:25.659Z,92.90
2018-02-20T03:03:54.962Z,93.00
2018-02-20T03:06:24.301Z,93.10
2018-02-20T03:08:53.617Z,93.00
2018-02-20T03:11:22.957Z,93.10
2018-02-20T03:13:53.016Z,92.90
2018-02-20T03:16:22.333Z,92.90
2018-02-20T03:18:51.671Z,92.90
2018-02-20T03:21:20.986Z,92.90
2018-02-20T03:23:51.986Z,92.90
2018-02-20T03:26:22.011Z,92.90
2018-02-20T03:28:51.335Z,92.80
2018-02-20T03:31:20.629Z,92.80
2018-02-20T03:33:50.724Z,92.80
2018-02-20T03:36:20.061Z,92.80
2018-02-20T03:38:50.109Z,92.70
2018-02-20T03:41:20.347Z,92.70
2018-02-20T03:43:49.640Z,92.60
2018-02-20T03:46:18.990Z,92.70
2018-02-20T03:48:49.092Z,92.80
2018-02-20T03:51:18.397Z,92.80
2018-02-20T03:53:47.710Z,92.60
2018-02-20T03:56:17.801Z,92.70
2018-02-20T03:58:47.857Z,92.60
2018-02-20T04:01:18.095Z,92.60
2018-02-20T04:03:49.487Z,92.50
2018-02-20T04:06:18.793Z,92.40
2018-02-20T04:08:48.127Z,92.20
2018-02-20T04:11:18.723Z,92.30
2018-02-20T04:13:48.047Z,92.30
2018-02-20T04:16:17.386Z,92.20
2018-02-20T04:18:46.687Z,92.00
2018-02-20T04:21:15.983Z,92.00
2018-02-20T04:23:45.305Z,91.80
2018-02-20T04:26:14.600Z,91.60
2018-02-20T04:28:43.897Z,91.60
2018-02-20T04:31:13.236Z,91.80
2018-02-20T04:33:42.538Z,92.00
2018-02-20T04:36:11.862Z,92.00
2018-02-20T04:38:41.164Z,92.00
2018-02-20T04:41:11.223Z,92.00
2018-02-20T04:43:40.566Z,92.00
2018-02-20T04:46:09.869Z,92.10
2018-02-20T04:48:39.175Z,92.00
2018-02-20T04:51:08.491Z,91.90
2018-02-20T04:53:37.800Z,91.80
2018-02-20T04:56:08.064Z,91.50
2018-02-20T04:58:37.356Z,91.20
2018-02-20T05:01:06.649Z,91.00
2018-02-20T05:03:35.978Z,91.10
2018-02-20T05:06:05.295Z,90.80
2018-02-20T05:08:34.586Z,90.90
2018-02-20T05:11:03.928Z,90.80
2018-02-20T05:13:33.230Z,90.70
2018-02-20T05:16:02.528Z,91.10
2018-02-20T05:18:31.891Z,90.90
2018-02-20T05:21:01.182Z,90.80
2018-02-20T05:23:30.487Z,90.80
2018-02-20T05:25:59.812Z,90.80
2018-02-20T05:28:29.992Z,89.80
2018-02-20T05:30:59.315Z,89.90
2018-02-20T05:33:28.601Z,90.00
2018-02-20T05:35:57.893Z,88.40
2018-02-20T05:38:28.087Z,89.20
2018-02-20T05:40:57.387Z,89.10
2018-02-20T05:43:26.746Z,88.40
2018-02-20T05:45:56.057Z,88.50
2018-02-20T05:48:26.199Z,88.90
2018-02-20T05:50:55.561Z,88.90
2018-02-20T05:53:24.825Z,88.80
2018-02-20T05:55:54.197Z,89.10
2018-02-20T05:58:23.497Z,89.30
2018-02-20T06:00:52.795Z,89.60
2018-02-20T06:03:22.132Z,89.00
2018-02-20T06:05:51.416Z,89.30
2018-02-20T06:08:20.732Z,89.70
2018-02-20T06:10:50.039Z,89.80
2018-02-20T06:13:19.371Z,89.80
2018-02-20T06:15:48.681Z,89.90
2018-02-20T06:18:19.480Z,89.80
2018-02-20T06:20:48.814Z,89.80
2018-02-20T06:23:18.358Z,90.20
2018-02-20T06:25:47.664Z,90.00
2018-02-20T06:28:17.034Z,89.80
2018-02-20T06:30:47.097Z,88.20
2018-02-20T06:33:16.427Z,88.10
2018-02-20T06:35:45.718Z,88.10
2018-02-20T06:38:15.018Z,88.20
2018-02-20T06:40:44.345Z,87.50
2018-02-20T06:43:14.434Z,87.50
2018-02-20T06:45:43.832Z,87.50
2018-02-20T06:48:13.128Z,87.30
2018-02-20T06:50:42.462Z,87.20
2018-02-20T06:53:11.814Z,87.70
2018-02-20T06:55:41.152Z,87.50
2018-02-20T06:58:10.454Z,85.50
2018-02-20T07:00:39.757Z,85.60
2018-02-20T07:03:09.075Z,86.50
2018-02-20T07:05:38.377Z,86.20
2018-02-20T07:08:07.675Z,85.60
2018-02-20T07:10:37.793Z,85.10
2018-02-20T07:13:07.841Z,85.00
2018-02-20T07:15:37.306Z,84.90
2018-02-20T07:18:06.598Z,85.30
2018-02-20T07:20:35.898Z,85.00
2018-02-20T07:23:05.234Z,84.60
2018-02-20T07:25:34.510Z,84.00
2018-02-20T07:28:03.944Z,83.60
2018-02-20T07:30:33.297Z,82.40
2018-02-20T07:33:02.602Z,83.20
2018-02-20T07:35:31.990Z,81.60
2018-02-20T07:38:01.414Z,81.80
2018-02-20T07:40:30.719Z,80.90
2018-02-20T07:43:00.478Z,80.30
2018-02-20T07:45:29.756Z,80.90
2018-02-20T07:47:59.068Z,81.00
2018-02-20T07:50:28.426Z,80.10
2018-02-20T07:52:57.710Z,80.80
2018-02-20T07:55:27.038Z,82.10
2018-02-20T07:57:56.394Z,82.80
2018-02-20T08:00:25.672Z,83.40
2018-02-20T08:02:54.979Z,83.60
2018-02-20T08:05:24.324Z,82.70
2018-02-20T08:07:53.627Z,83.70
2018-02-20T08:10:22.926Z,83.30
2018-02-20T08:12:52.265Z,83.90
2018-02-20T08:15:22.335Z,84.10
2018-02-20T08:17:52.455Z,84.80
2018-02-20T08:20:21.779Z,84.80
2018-02-20T08:22:51.101Z,85.00
2018-02-20T08:25:20.390Z,85.80
2018-02-20T08:27:50.496Z,85.40
2018-02-20T08:30:19.879Z,85.40
2018-02-20T08:32:49.150Z,86.00
2018-02-20T08:35:18.448Z,85.20
2018-02-20T08:37:47.777Z,85.00
2018-02-20T08:40:17.071Z,85.30
2018-02-20T08:42:46.423Z,86.30
2018-02-20T08:45:16.494Z,87.50
2018-02-20T08:47:45.803Z,87.50
2018-02-20T08:50:15.158Z,87.60
2018-02-20T08:52:44.979Z,89.10
2018-02-20T08:55:14.302Z,90.50
2018-02-20T08:57:43.628Z,91.20
2018-02-20T09:00:12.938Z,91.10
2018-02-20T09:02:43.115Z,91.20
2018-02-20T09:05:12.465Z,91.00
2018-02-20T09:07:42.705Z,90.90
2018-02-20T09:10:12.810Z,90.60
2018-02-20T09:12:42.112Z,90.60
2018-02-20T09:15:11.409Z,90.90
2018-02-20T09:17:40.776Z,91.00
2018-02-20T09:20:10.073Z,90.50
2018-02-20T09:22:39.388Z,90.60
2018-02-20T09:25:08.702Z,90.50
2018-02-20T09:27:38.036Z,90.50
2018-02-20T09:30:07.332Z,90.40
2018-02-20T09:32:37.416Z,89.70
2018-02-20T09:35:06.729Z,89.70
2018-02-20T09:37:36.834Z,89.40
2018-02-20T09:40:06.157Z,89.30
2018-02-20T09:42:36.261Z,89.60
2018-02-20T09:45:05.565Z,89.40
2018-02-20T09:47:34.960Z,89.30
2018-02-20T09:50:04.251Z,89.10
2018-02-20T09:52:33.544Z,88.60
2018-02-20T09:55:02.852Z,87.60
2018-02-20T09:57:32.188Z,88.10
2018-02-20T10:00:01.478Z,87.80
2018-02-20T10:02:30.774Z,87.40
2018-02-20T10:05:00.968Z,87.50
2018-02-20T10:07:31.088Z,86.70
2018-02-20T10:10:00.422Z,86.00
2018-02-20T10:12:29.769Z,85.00
2018-02-20T10:14:59.096Z,84.10
2018-02-20T10:17:28.405Z,85.20
2018-02-20T10:19:57.740Z,84.30
2018-02-20T10:22:27.026Z,83.50
2018-02-20T10:24:56.351Z,82.20
2018-02-20T10:27:25.659Z,81.80
2018-02-20T10:29:55.706Z,81.20
2018-02-20T10:32:25.039Z,79.90
2018-02-20T10:34:54.320Z,80.30
2018-02-20T10:37:23.616Z,79.50
2018-02-20T10:39:52.966Z,80.00
2018-02-20T10:42:22.244Z,80.10
2018-02-20T10:44:51.571Z,79.30
2018-02-20T10:47:21.662Z,78.10
2018-02-20T10:49:50.959Z,78.10
2018-02-20T10:52:20.259Z,79.60
2018-02-20T10:54:49.560Z,80.90
2018-02-20T10:57:18.860Z,80.00
2018-02-20T10:59:48.171Z,80.00
2018-02-20T11:02:18.283Z,77.60
2018-02-20T11:04:47.647Z,77.20
2018-02-20T11:07:16.937Z,78.70
2018-02-20T11:09:46.267Z,79.70
2018-02-20T11:12:16.460Z,78.20
2018-02-20T11:14:45.800Z,80.40
2018-02-20T11:17:16.053Z,79.40
2018-02-20T11:19:46.179Z,79.80
2018-02-20T11:22:16.415Z,79.90
2018-02-20T11:24:46.543Z,78.40
2018-02-20T11:27:15.888Z,78.40
2018-02-20T11:29:45.233Z,77.50
2018-02-20T11:32:14.529Z,77.20
2018-02-20T11:34:43.822Z,78.80
2018-02-20T11:37:13.920Z,79.30
2018-02-20T11:39:44.146Z,79.20
2018-02-20T11:42:13.467Z,78.60
2018-02-20T11:44:42.761Z,79.10
2018-02-20T11:47:12.089Z,79.50
2018-02-20T11:49:41.399Z,80.00
2018-02-20T11:52:10.698Z,80.50
2018-02-20T11:54:40.030Z,80.20
2018-02-20T11:57:09.350Z,81.20
2018-02-20T11:59:38.654Z,81.70
2018-02-20T12:02:07.969Z,82.20
2018-02-20T12:04:37.270Z,81.60
2018-02-20T12:07:06.601Z,81.00
2018-02-20T12:09:35.914Z,81.10
2018-02-20T12:12:05.204Z,78.10
2018-02-20T12:14:34.533Z,79.10
2018-02-20T12:17:03.843Z,80.10
2018-02-20T12:19:33.146Z,81.00
2018-02-20T12:22:02.464Z,81.30
2018-02-20T12:24:32.525Z,82.50
2018-02-20T12:27:01.893Z,82.40
2018-02-20T12:29:31.194Z,82.60
2018-02-20T12:32:01.273Z,82.80
2018-02-20T12:34:30.585Z,82.80
2018-02-20T12:36:59.925Z,83.60
2018-02-20T12:39:29.224Z,83.80
2018-02-20T12:41:58.520Z,84.20
2018-02-20T12:44:27.853Z,85.00
2018-02-20T12:46:57.203Z,85.60
2018-02-20T12:49:26.478Z,86.60
2018-02-20T12:51:56.562Z,87.10
2018-02-20T12:54:25.861Z,87.10
2018-02-20T12:56:55.193Z,87.20
2018-02-20T12:59:24.584Z,87.20
2018-02-20T13:01:53.914Z,86.70
2018-02-20T13:04:23.225Z,87.20
2018-02-20T13:06:52.551Z,87.70
2018-02-20T13:09:21.849Z,87.10
2018-02-20T13:11:51.218Z,87.00
2018-02-20T13:14:20.521Z,88.20
2018-02-20T13:16:49.820Z,88.40
2018-02-20T13:19:19.144Z,88.30
2018-02-20T13:21:48.443Z,88.10
2018-02-20T13:24:18.552Z,88.90
2018-02-20T13:26:47.874Z,88.90
2018-02-20T13:29:17.215Z,88.10
2018-02-20T13:31:46.533Z,88.10
2018-02-20T13:34:15.894Z,87.80
2018-02-20T13:36:45.192Z,86.70
2018-02-20T13:39:14.519Z,86.50
2018-02-20T13:41:43.872Z,87.00
2018-02-20T13:44:13.930Z,86.70
2018-02-20T13:46:43.284Z,86.70
2018-02-20T13:49:13.344Z,86.40
2018-02-20T13:51:42.682Z,86.20
2018-02-20T13:54:11.977Z,86.30
2018-02-20T13:56:41.300Z,86.20
2018-02-20T13:59:10.598Z,85.70
2018-02-20T14:01:39.891Z,85.40
2018-02-20T14:04:09.249Z,84.40
2018-02-20T14:06:38.593Z,84.30
2018-02-20T14:09:07.904Z,84.80
2018-02-20T14:11:37.225Z,84.70
2018-02-20T14:14:06.514Z,84.30
2018-02-20T14:16:36.638Z,84.30
2018-02-20T14:19:06.718Z,83.90
2018-02-20T14:21:36.038Z,83.90
2018-02-20T14:24:05.422Z,84.20
2018-02-20T14:26:34.760Z,84.00
2018-02-20T14:29:04.875Z,82.70
2018-02-20T14:31:34.194Z,82.80
2018-02-20T14:34:04.337Z,76.00
2018-02-20T14:36:34.413Z,79.10
2018-02-20T14:39:04.578Z,77.50
2018-02-20T14:41:34.630Z,76.40
2018-02-20T14:44:03.994Z,76.30
2018-02-20T14:46:33.284Z,75.80
2018-02-20T14:49:02.580Z,75.60
2018-02-20T14:51:31.901Z,75.10
2018-02-20T14:54:01.194Z,76.40
2018-02-20T14:56:31.434Z,79.10
2018-02-20T14:59:00.719Z,79.00
2018-02-20T15:01:30.044Z,78.60
2018-02-20T15:03:59.347Z,77.70
2018-02-20T15:06:28.673Z,73.10
2018-02-20T15:08:57.942Z,74.00
2018-02-20T15:11:27.993Z,73.50
2018-02-20T15:13:57.303Z,75.00
2018-02-20T15:16:27.436Z,73.20
2018-02-20T15:18:57.485Z,72.40
2018-02-20T15:21:26.811Z,72.40
2018-02-20T15:23:56.238Z,72.90
2018-02-20T15:26:25.536Z,73.30
2018-02-20T15:28:54.812Z,71.60
2018-02-20T15:31:24.147Z,72.50
2018-02-20T15:33:54.233Z,73.30
2018-02-20T15:36:23.607Z,73.30
2018-02-20T15:38:52.951Z,72.20
2018-02-20T15:41:22.281Z,73.20
2018-02-20T15:43:51.627Z,73.80
2018-02-20T15:46:20.911Z,73.90
2018-02-20T15:48:50.257Z,73.70
2018-02-20T15:51:19.566Z,75.30
2018-02-20T15:53:49.643Z,75.40
2018-02-20T15:56:18.987Z,75.40
2018-02-20T15:58:49.050Z,74.10
2018-02-20T16:01:18.398Z,74.60
2018-02-20T16:03:47.700Z,74.70
2018-02-20T16:06:16.976Z,74.30
2018-02-20T16:08:46.307Z,74.60
2018-02-20T16:11:15.581Z,75.40
2018-02-20T16:13:44.924Z,74.80
2018-02-20T16:16:17.293Z,73.50
2018-02-20T16:18:47.372Z,72.90
2018-02-20T16:21:16.695Z,72.90
2018-02-20T16:23:45.996Z,73.10
2018-02-20T16:26:16.056Z,73.70
2018-02-20T16:28:45.421Z,73.70
2018-02-20T16:31:14.731Z,73.50
2018-02-20T16:33:45.456Z,74.00
2018-02-20T16:36:15.550Z,74.70
2018-02-20T16:38:44.828Z,74.70
2018-02-20T16:41:14.155Z,75.10
2018-02-20T16:43:43.511Z,75.00
2018-02-20T16:46:12.823Z,73.80
2018-02-20T16:48:42.121Z,74.50
2018-02-20T16:51:11.431Z,75.30
2018-02-20T16:53:40.726Z,74.50
2018-02-20T16:56:10.061Z,75.10
2018-02-20T16:58:39.390Z,74.40
2018-02-20T17:01:09.580Z,75.00
2018-02-20T17:03:38.935Z,75.00
2018-02-20T17:06:08.238Z,74.80
2018-02-20T17:08:37.525Z,74.20
2018-02-20T17:11:06.841Z,74.70
2018-02-20T17:13:36.143Z,75.60
2018-02-20T17:16:05.463Z,76.30
2018-02-20T17:18:34.758Z,75.50
2018-02-20T17:21:04.143Z,76.60
2018-02-20T17:23:33.405Z,77.40
2018-02-20T17:26:02.719Z,78.00
2018-02-20T17:28:32.072Z,77.60
2018-02-20T17:31:01.446Z,77.50
2018-02-20T17:33:30.766Z,77.40
2018-02-20T17:36:00.060Z,77.60
2018-02-20T17:38:29.349Z,77.60
2018-02-20T17:40:58.660Z,77.60
2018-02-20T17:43:27.976Z,76.00
2018-02-20T17:45:57.304Z,75.30
2018-02-20T17:48:26.680Z,75.80
2018-02-20T17:50:55.962Z,74.80
2018-02-20T17:53:25.297Z,75.00
2018-02-20T17:55:54.573Z,75.20
2018-02-20T17:58:23.927Z,74.20
2018-02-20T18:00:54.025Z,73.60
2018-02-20T18:03:23.384Z,73.60
2018-02-20T18:05:52.687Z,74.00
2018-02-20T18:08:22.029Z,74.00
2018-02-20T18:10:51.316Z,74.00
2018-02-20T18:13:20.660Z,73.00
2018-02-20T18:15:50.729Z,74.30
2018-02-20T18:18:20.066Z,74.30
2018-02-20T18:20:49.380Z,75.60
2018-02-20T18:23:20.436Z,75.20
2018-02-20T18:25:49.754Z,75.10
2018-02-20T18:28:19.065Z,75.80
2018-02-20T18:30:48.461Z,76.40
2018-02-20T18:33:17.763Z,77.10
2018-02-20T18:35:47.060Z,77.40
2018-02-20T18:38:16.448Z,76.20
2018-02-20T18:40:45.745Z,76.70
2018-02-20T18:43:15.107Z,76.50
2018-02-20T18:45:44.451Z,77.30
2018-02-20T18:48:13.772Z,77.80
2018-02-20T18:50:43.051Z,77.60
2018-02-20T18:53:12.387Z,78.60
2018-02-20T18:55:41.678Z,78.30
2018-02-20T18:58:12.935Z,79.30
2018-02-20T19:00:43.007Z,79.60
2018-02-20T19:03:12.421Z,79.90
2018-02-20T19:05:42.610Z,81.00
2018-02-20T19:08:12.134Z,80.30
2018-02-20T19:10:42.408Z,80.20
2018-02-20T19:13:12.559Z,80.60
2018-02-20T19:15:43.456Z,79.00
2018-02-20T19:18:12.968Z,79.00
2018-02-20T19:20:42.256Z,79.30
2018-02-20T19:23:11.563Z,79.10
2018-02-20T19:25:41.033Z,77.40
2018-02-20T19:28:10.385Z,77.80
2018-02-20T19:30:39.676Z,78.10
2018-02-20T19:33:08.984Z,78.20
2018-02-20T19:35:38.272Z,78.40
2018-02-20T19:38:07.584Z,78.60
2018-02-20T19:40:36.938Z,78.30
2018-02-20T19:43:06.233Z,78.50
2018-02-20T19:45:35.540Z,78.80
2018-02-20T19:48:04.893Z,79.50
2018-02-20T19:50:34.227Z,79.30
2018-02-20T19:53:04.347Z,80.20
2018-02-20T19:55:34.418Z,80.30
2018-02-20T19:58:03.749Z,80.30
2018-02-20T20:00:33.064Z,80.30
2018-02-20T20:03:03.158Z,81.00
2018-02-20T20:05:32.465Z,81.00
2018-02-20T20:08:01.795Z,81.30
2018-02-20T20:10:31.104Z,81.40
2018-02-20T20:13:00.469Z,81.40
2018-02-20T20:15:29.786Z,82.20
2018-02-20T20:17:59.839Z,82.30
2018-02-20T20:20:36.907Z,82.30
2018-02-20T20:22:59.416Z,82.40
2018-02-20T20:25:29.502Z,83.40
2018-02-20T20:27:58.832Z,83.40
2018-02-20T20:30:28.172Z,84.00
2018-02-20T20:32:58.215Z,83.40
2018-02-20T20:35:27.537Z,83.40
2018-02-20T20:37:56.899Z,83.30
2018-02-20T20:40:26.203Z,84.00
2018-02-20T20:42:55.746Z,84.40
2018-02-20T20:45:26.957Z,84.20
2018-02-20T20:47:56.279Z,83.80
2018-02-20T20:50:25.591Z,83.70
2018-02-20T20:52:54.860Z,84.60
2018-02-20T20:55:24.214Z,84.70
2018-02-20T20:57:53.557Z,84.60
2018-02-20T21:00:22.878Z,85.30
2018-02-20T21:02:52.182Z,85.10
2018-02-20T21:05:21.560Z,85.00
2018-02-20T21:07:50.859Z,85.30
2018-02-20T21:10:20.179Z,85.30
2018-02-20T21:12:49.460Z,84.70
2018-02-20T21:15:18.825Z,84.50
2018-02-20T21:17:48.897Z,85.10
2018-02-20T21:20:18.394Z,85.00
2018-02-20T21:22:47.671Z,85.20
2018-02-20T21:25:16.995Z,85.20
2018-02-20T21:27:46.300Z,85.00
2018-02-20T21:30:15.603Z,85.30
2018-02-20T21:32:44.966Z,85.20
2018-02-20T21:35:14.255Z,85.30
2018-02-20T21:37:44.341Z,84.80
2018-02-20T21:40:13.729Z,84.80
2018-02-20T21:42:43.033Z,85.60
2018-02-20T21:45:15.191Z,85.90
2018-02-20T21:47:44.547Z,85.90
2018-02-20T21:50:14.035Z,85.80
2018-02-20T21:52:43.364Z,85.50
2018-02-20T21:55:12.661Z,85.60
2018-02-20T21:57:42.902Z,86.50
2018-02-20T22:00:12.237Z,86.50
2018-02-20T22:02:41.530Z,86.60
2018-02-20T22:05:10.853Z,86.80
2018-02-20T22:07:40.154Z,87.70
2018-02-20T22:10:11.249Z,87.30
2018-02-20T22:12:40.563Z,86.80
2018-02-20T22:15:09.926Z,86.80
2018-02-20T22:17:40.008Z,88.40
2018-02-20T22:20:09.335Z,88.40
2018-02-20T22:22:39.396Z,88.10
2018-02-20T22:25:08.738Z,88.10
2018-02-20T22:27:38.035Z,88.50
2018-02-20T22:30:07.386Z,88.20
2018-02-20T22:32:36.732Z,88.30
2018-02-20T22:35:06.033Z,88.60
2018-02-20T22:37:35.350Z,88.70
2018-02-20T22:40:04.652Z,88.80
2018-02-20T22:42:33.997Z,89.40
2018-02-20T22:45:03.334Z,88.70
2018-02-20T22:47:32.630Z,89.00
2018-02-20T22:50:01.942Z,89.30
2018-02-20T22:52:31.253Z,89.10
2018-02-20T22:55:00.588Z,89.60
2018-02-20T22:57:29.892Z,90.00
2018-02-20T22:59:59.268Z,90.30
2018-02-20T23:02:29.359Z,90.20
2018-02-20T23:04:58.684Z,90.20
2018-02-20T23:07:27.998Z,90.30
2018-02-20T23:09:58.088Z,90.40
2018-02-20T23:12:27.396Z,90.40
2018-02-20T23:14:56.723Z,90.10
2018-02-20T23:17:26.778Z,90.30
2018-02-20T23:19:56.136Z,90.20
2018-02-20T23:22:26.182Z,90.00
2018-02-20T23:24:55.510Z,90.00
2018-02-20T23:27:24.857Z,90.00
2018-02-20T23:29:54.941Z,90.00
2018-02-20T23:32:24.283Z,90.00
2018-02-20T23:34:54.348Z,89.60
2018-02-20T23:37:23.699Z,89.60
2018-02-20T23:39:53.774Z,90.10
2018-02-20T23:42:23.100Z,90.10
2018-02-20T23:44:52.424Z,90.10
2018-02-20T23:47:21.748Z,89.80
2018-02-20T23:49:51.055Z,89.80
2018-02-20T23:52:20.362Z,89.90
2018-02-20T23:54:49.849Z,90.10
2018-02-20T23:57:19.154Z,90.20
2018-02-20T23:59:48.453Z,90.20
